Terminal Aerodrome Forecast
Issued by NWS Wakefield, VA

Home | Current Version | Previous Version | Text Only | Print | Product List | Glossary On
Versions: 1 2 3 4 5 6 7 8 9 10 11 12 13
485
FTUS41 KAKQ 221734
TAFRIC
TAF
KRIC 221734Z 2218/2318 21008KT P6SM VCSH OVC035
      TEMPO 2218/2220 2SM -RA BR OVC030
     FM222300 19004KT P6SM OVC035
     FM230200 VRB03KT P6SM BKN040
     FM230900 00000KT 4SM BR BKN040
     FM231000 00000KT 2SM BR BKN025
     FM231300 20004KT P6SM BKN040=

USA.gov is the U.S. government's official web portal to all federal, state and local government web resources and services.